Aviation Digital Data Service (ADDS)

Output produced by METARs form (1852 UTC 29 May 2017)
found at http://www.aviationweather.gov/adds/metars/
 
KSEG 291801Z AUTO 17008KT 10SM SCT019 22/17 A2990 RMK AO2 T02170172 PWINO PNO $
KSEG 291753Z AUTO 16006KT 10SM BKN019 22/17 A2990 RMK AO2 SLP124 6//// T02170172 10217 20144 50007 PWINO PNO $
KSEG 291653Z AUTO 16007KT 10SM BKN018 21/17 A2991 RMK AO2 SLP126 T02060167 PWINO PNO $
KSEG 291613Z AUTO 17007KT 10SM OVC015 19/16 A2991 RMK AO2 T01890161 PWINO PNO $
KSEG 291553Z AUTO 15006KT 10SM OVC013 19/17 A2990 RMK AO2 SLP122 T01890167 PWINO PNO $
KSEG 291453Z AUTO 16006KT 10SM OVC012 17/16 A2988 RMK AO2 SLP118 6//// T01720156 50007 PWINO PNO $
KSEG 291353Z AUTO 18004KT 10SM OVC012 16/14 A2990 RMK AO2 SLP122 T01610144 PWINO PNO $
KSEG 291307Z AUTO 00000KT 10SM BKN010 BKN017 17/15 A2987 RMK AO2 CIG 008V012 T01670150 PWINO PNO $
KSEG 291253Z AUTO 00000KT 10SM FEW008 BKN015 16/14 A2986 RMK AO2 SLP110 T01610144 PWINO PNO $
KSEG 291231Z AUTO 00000KT 10SM BKN016 OVC095 15/14 A2985 RMK AO2 LTG DSNT E AND SE T01500139 PWINO PNO $
KSEG 291219Z AUTO 00000KT 8SM FEW014 SCT080 OVC100 14/14 A2985 RMK AO2 LTG DSNT NE-SE T01440144 PWINO PNO $
KSEG 291153Z AUTO 13005KT 4SM VCTS BR SCT015 BKN090 OVC100 14/14 A2984 RMK AO2 LTG DSNT S TSB32E48 SLP104 6//// 7//// T01440144 10167 20144 51012 PWINO $
KSEG 291148Z AUTO 11006KT 4SM VCTS BR SCT015 OVC095 14/14 A2984 RMK AO2 LTG DSNT S TSB32E48 PWINO $
KSEG 291145Z AUTO 13006KT 3SM TS BR BKN015 BKN040 OVC100 14/14 A2985 RMK AO2 TSB32 T01440144 PWINO $
KSEG 291142Z AUTO 13005KT 2SM TS BR BKN013 BKN021 OVC100 14/14 A2986 RMK AO2 TSB32 T01440144 PWINO $
KSEG 291134Z AUTO 16005KT 1SM TS BR BKN013 OVC019 14/14 A2986 RMK AO2 LTG DSNT SW TSB32 T01440144 PWINO $
KSEG 291130Z AUTO 17003KT 1 3/4SM BR OVC013 14/14 A2986 RMK AO2 LTG DSNT SW T01440144 PWINO $
KSEG 291059Z AUTO 00000KT 4SM BR OVC013 14/14 A2984 RMK AO2 T01440144 PWINO $
KSEG 291053Z AUTO 00000KT 1 1/2SM BR OVC013 15/14 A2984 RMK AO2 VIS 3/4V5 LTG DSNT W SLP104 T01500139 PWINO $
KSEG 291049Z AUTO 00000KT 1 3/4SM BR OVC013 15/14 A2984 RMK AO2 LTG DSNT W PWINO $
KSEG 291039Z AUTO 00000KT 5SM BR OVC013 15/14 A2984 RMK AO2 LTG DSNT W T01500139 PWINO $
KSEG 290953Z AUTO 13005KT 5SM BR OVC015 15/14 A2982 RMK AO2 SLP096 T01500144 PWINO $
KSEG 290948Z AUTO 13004KT 3SM BR OVC015 15/14 A2982 RMK AO2 PWINO $
KSEG 290943Z AUTO 13004KT 2 1/2SM BR OVC013 15/14 A2982 RMK AO2 T01500144 PWINO $
KSEG 290929Z AUTO 00000KT 1 3/4SM BR OVC013 15/14 A2983 RMK AO2 T01500139 PWINO $
KSEG 290853Z AUTO 15003KT 10SM OVC013 16/14 A2981 RMK AO2 SLP093 T01560139 56003 PWINO $
KSEG 290837Z AUTO 16003KT 10SM OVC013 16/14 A2981 RMK AO2 T01560139 PWINO $
KSEG 290753Z AUTO 14006KT 10SM OVC017 16/14 A2981 RMK AO2 SLP093 T01560144 PWINO $
KSEG 290653Z AUTO 11006KT 4SM BR OVC015 16/15 A2981 RMK AO2 SLP093 T01560150 PWINO $
KSEG 290553Z AUTO 13003KT 9SM OVC014 17/16 A2982 RMK AO2 SLP094 6//// T01670156 10189 20167 56008 PWINO $
KSEG 290549Z AUTO 13004KT 7SM OVC014 17/16 A2982 RMK AO2 PWINO $
KSEG 290453Z AUTO 00000KT 10SM OVC016 17/16 A2983 RMK AO2 SLP097 T01720161 402390106 PWINO $
KSEG 290410Z AUTO 00000KT 8SM SCT008 OVC016 17/17 A2984 RMK AO2 T01720172 PWINO $
KSEG 290353Z AUTO 00000KT 9SM BKN008 BKN013 OVC019 17/17 A2984 RMK AO2 SLP103 T01720172 PWINO $
KSEG 290311Z AUTO 00000KT 3SM BR OVC012 17/17 A2985 RMK AO2 T01720172 PWINO PNO $
KSEG 290253Z AUTO 00000KT 3SM BR OVC015 17/17 A2985 RMK AO2 SLP106 T01720172 56003 PWINO $
KSEG 290215Z AUTO 00000KT 8SM SCT017 BKN026 OVC080 18/17 A2985 RMK AO2 T01780167 PWINO $
KSEG 290153Z AUTO 17003KT 8SM FEW023 BKN048 OVC080 18/17 A2985 RMK AO2 SLP107 T01780167 PWINO $
KSEG 290126Z AUTO 00000KT 9SM SCT025 BKN060 OVC075 18/17 A2985 RMK AO2 T01780167 PWINO $
KSEG 290109Z AUTO 17004KT 10SM BKN025 OVC032 18/17 A2985 RMK AO2 T01830167 PWINO $
KSEG 290053Z AUTO 00000KT 10SM FEW025 BKN031 OVC050 18/17 A2986 RMK AO2 SLP108 T01830167 PWINO $
KSEG 282353Z AUTO 17003KT 5SM BR FEW024 BKN044 OVC075 19/18 A2986 RMK AO2 SLP109 6//// T01890178 10233 20183 53001 PWINO $
KSEG 282253Z AUTO 00000KT 5SM BR FEW029 OVC038 19/18 A2985 RMK AO2 SLP109 T01890183 PWINO $
KSEG 282250Z AUTO 00000KT 5SM BR SCT029 OVC036 19/18 A2985 RMK AO2 PWINO $
KSEG 282241Z AUTO 14004KT 3SM BR FEW006 BKN029 OVC036 19/18 A2985 RMK AO2 LTG DSNT NW T01890183 PWINO $
KSEG 282226Z AUTO 12003KT 1 1/2SM BR FEW006 BKN028 OVC045 19/18 A2985 RMK AO2 T01890178 PWINO $
KSEG 282219Z AUTO 00000KT 1 3/4SM BR FEW006 BKN035 OVC045 19/18 A2985 RMK AO2 T01890183 PWINO $
KSEG 282215Z AUTO 00000KT 2SM BR FEW006 BKN029 OVC045 19/18 A2986 RMK AO2 T01890178 PWINO $
KSEG 282205Z AUTO 00000KT 1 1/4SM BR FEW027 BKN038 OVC055 19/18 A2985 RMK AO2 T01890183 PWINO PNO $
KSEG 282153Z AUTO 00000KT 3/4SM BR SCT029 BKN036 OVC045 19/18 A2986 RMK AO2 SLP109 T01890183 PWINO $
KSEG 282148Z AUTO 00000KT 1 1/4SM BR FEW026 BKN036 OVC043 19/18 A2985 RMK AO2 PWINO $
KSEG 282134Z AUTO 00000KT 1SM BR FEW026 BKN035 OVC044 19/18 A2985 RMK AO2 T01890178 PWINO $
KSEG 282116Z AUTO 00000KT 2 1/2SM BR BKN030 BKN037 OVC043 19/18 A2984 RMK AO2 T01940183 PWINO $
KSEG 282107Z AUTO 18004KT 1 3/4SM BR OVC033 20/18 A2984 RMK AO2 T02000183 PWINO $
KSEG 282053Z AUTO 00000KT 9SM OVC034 21/17 A2985 RMK AO2 SLP107 6//// T02060172 55007 PWINO $
KSEG 281953Z AUTO 19006KT 10SM OVC050 21/17 A2985 RMK AO2 SLP104 T02110167 PWINO $
KSEG 281909Z AUTO 19005KT 10SM FEW028 OVC038 21/17 A2985 RMK AO2 T02110167 PWINO $
KSEG 281902Z AUTO 00000KT 2SM HZ BKN034 BKN040 OVC049 21/17 A2986 RMK AO2 T02060172 PWINO $
KSEG 281900Z AUTO 00000KT 1SM HZ BKN034 BKN040 OVC050 21/17 A2986 RMK AO2 T02060172 PWINO $
KSEG 281853Z AUTO 23003KT 1 1/4SM HZ BKN037 OVC050 22/17 A2986 RMK AO2 SLP110 T02170167 PWINO $
KSEG 281753Z AUTO 18009KT 10SM OVC039 23/16 A2987 RMK AO2 SLP113 6//// T02280161 10239 20139 58002 PWINO PNO $
KSEG 281653Z AUTO 18007KT 10SM FEW030 SCT038 OVC055 22/16 A2989 RMK AO2 SLP120 T02220156 PWINO PNO $
KSEG 281553Z AUTO 18007KT 10SM FEW036 OVC060 23/15 A2990 RMK AO2 SLP122 T02280150 PWINO PNO $
KSEG 281453Z AUTO 17006KT 10SM BKN060 22/15 A2988 RMK AO2 SLP115 6//// T02220150 56013 PWINO PNO $
KSEG 281353Z AUTO 00000KT 10SM CLR 20/15 A2988 RMK AO2 SLP117 T02000150 PWINO PNO $
KSEG 281253Z AUTO 00000KT 9SM CLR 17/14 A2990 RMK AO2 SLP122 T01670144 PWINO PNO $
KSEG 281225Z AUTO 00000KT 7SM SCT002 16/14 A2991 RMK AO2 T01560144 PWINO PNO $
KSEG 281205Z AUTO 00000KT 4SM BR BKN002 14/14 A2992 RMK AO2 T01390139 PWINO PNO $
KSEG 281153Z AUTO 00000KT 2 1/2SM BR OVC002 14/14 A2991 RMK AO2 SLP128 6//// 7//// T01390139 10139 20106 51006 PWINO PNO $
KSEG 281130Z AUTO 00000KT 2SM BR OVC002 14/13 A2991 RMK AO2 T01390133 PWINO PNO $
KSEG 281120Z AUTO 00000KT 1 1/4SM BR OVC002 13/13 A2991 RMK AO2 T01330133 PWINO PNO $
KSEG 281113Z AUTO 00000KT 3/4SM BR OVC002 13/13 A2991 RMK AO2 T01330133 PWINO PNO $
KSEG 281109Z AUTO 00000KT 1 1/2SM BR OVC002 13/13 A2991 RMK AO2 T01280128 PWINO PNO $
KSEG 281053Z AUTO 00000KT 4SM BR BKN002 12/12 A2991 RMK AO2 SLP128 T01220122 PWINO PNO $
KSEG 281024Z AUTO 00000KT 3SM BR OVC002 12/12 A2990 RMK AO2 T01170117 PWINO PNO $
KSEG 281014Z AUTO 00000KT 2 1/2SM BR BKN002 12/11 A2990 RMK AO2 T01170111 PWINO PNO $
KSEG 280959Z AUTO 00000KT 1 3/4SM BR FEW002 11/11 A2991 RMK AO2 VIS 3/4V2 1/2 T01110111 PWINO PNO $
KSEG 280953Z AUTO 00000KT 2SM BR CLR 11/11 A2991 RMK AO2 SLP125 T01110111 PWINO PNO $
KSEG 280936Z AUTO 00000KT 2SM BR CLR 11/11 A2991 RMK AO2 T01110111 PWINO PNO $
KSEG 280907Z AUTO 00000KT 4SM BR CLR 12/11 A2990 RMK AO2 T01170111 PWINO PNO $
KSEG 280853Z AUTO 00000KT 2 1/2SM BR CLR 12/11 A2990 RMK AO2 VIS 1 1/2V3 SLP122 6//// T01170111 53004 PWINO PNO $
KSEG 280848Z AUTO 00000KT 2 1/2SM BR CLR 11/11 A2989 RMK AO2 PWINO PNO $
KSEG 280826Z AUTO 00000KT 4SM BR CLR 12/12 A2989 RMK AO2 T01170117 PWINO PNO $
KSEG 280818Z AUTO 35003KT 2 1/2SM BR CLR 12/12 A2988 RMK AO2 T01170117 PWINO PNO $
KSEG 280753Z AUTO 29003KT 3SM BR CLR 12/12 A2988 RMK AO2 SLP118 T01170117 PWINO PNO $
KSEG 280743Z AUTO 30003KT 2 1/2SM BR CLR 12/12 A2988 RMK AO2 T01170117 PWINO PNO $
KSEG 280700Z AUTO 00000KT 4SM BR CLR 13/13 A2989 RMK AO2 T01280128 PWINO PNO $
KSEG 280653Z AUTO 00000KT 2 1/2SM BR FEW048 12/12 A2989 RMK AO2 SLP119 T01220122 PWINO PNO $